Forside
METAR-TAF:

METAR-TAF

Lufthavne :

Williamson County Regional Airport

Marion, Illinois, USA

Breddekreds: 37-45-01N, længdekreds: 089-00-04W, højde: 144 m

Aktuelle vejr

Denne rapport blev lavet for 13 minutter siden, kl. 21:45 UTC
Vind 6 kt fra vestnordvest
Temperatur 9°C
Fugtighed 61%
Tryk 1020 hPa
Sigt: 32.2 km
skyfri

METAR: KMWA 162145Z 30006KT 20SM SKC 09/02 A3012

Tid: 15:58 (21:58 UTC)


TAF: fraværende

Vejrobservationer og prognoser fra mere end 4000 lufthavne (METAR og TAF).

De gule og røde prikker repræsenterer de meteorologiske stationer.

Flyt musen over at se navnet på stationen.

Så klik over at se vejr observationer og prognoser.

At skifte det kort: Klik på de grønne knapper med et sort kors for at zoome ind; på den grønne knap med en bindestreg for at zoome ud; eller på de grønne pile for tilstødende kort.


METAR-TAF: